createdAt,value
2022-10-11T00:01:26.300Z,73.05
2022-10-11T00:03:52.686Z,73.06
2022-10-11T00:06:19.053Z,72.49
2022-10-11T00:08:45.420Z,72.54
2022-10-11T00:11:11.797Z,72.67
2022-10-11T00:13:38.199Z,73.18
2022-10-11T00:16:12.182Z,73.32
2022-10-11T00:18:39.330Z,73.04
2022-10-11T00:21:08.871Z,72.87
2022-10-11T00:23:35.962Z,72.13
2022-10-11T00:26:04.899Z,72.54
2022-10-11T00:28:32.362Z,73.02
2022-10-11T00:30:58.927Z,72.54
2022-10-11T00:33:25.839Z,72.83
2022-10-11T00:35:52.223Z,73.12
2022-10-11T00:38:18.920Z,73.31
2022-10-11T00:40:45.588Z,73.51
2022-10-11T00:43:17.251Z,73.19
2022-10-11T00:46:23.828Z,72.80
2022-10-11T00:49:07.143Z,73.19
2022-10-11T00:51:41.105Z,72.76
2022-10-11T00:54:13.139Z,73.26
2022-10-11T00:56:40.703Z,73.34
2022-10-11T00:59:13.816Z,73.37
2022-10-11T01:01:40.810Z,73.55
2022-10-11T01:04:07.393Z,73.27
2022-10-11T01:06:34.899Z,73.07
2022-10-11T01:09:01.579Z,72.96
2022-10-11T01:11:29.821Z,72.78
2022-10-11T01:14:39.397Z,73.05
2022-10-11T01:17:38.134Z,73.01
2022-10-11T01:20:22.204Z,72.84
2022-10-11T01:22:57.701Z,73.41
2022-10-11T01:25:36.158Z,73.04
2022-10-11T01:28:28.657Z,73.32
2022-10-11T01:31:03.868Z,72.87
2022-10-11T01:33:37.878Z,73.23
2022-10-11T01:36:30.739Z,72.94
2022-10-11T01:39:09.650Z,73.22
2022-10-11T01:41:46.209Z,73.36
2022-10-11T01:44:13.762Z,73.03
2022-10-11T01:46:40.868Z,73.21
2022-10-11T01:49:07.913Z,73.14
2022-10-11T01:51:42.016Z,73.01
2022-10-11T01:54:56.548Z,73.16
2022-10-11T01:57:53.846Z,73.07
2022-10-11T02:00:23.908Z,73.08
2022-10-11T02:03:19.258Z,73.18
2022-10-11T02:05:56.488Z,73.03
2022-10-11T02:08:50.043Z,73.66
2022-10-11T02:11:31.773Z,73.79
2022-10-11T02:14:12.180Z,73.50
2022-10-11T02:16:54.229Z,73.51
2022-10-11T02:19:26.349Z,72.89
2022-10-11T02:21:56.654Z,72.71
2022-10-11T02:24:30.266Z,72.97
2022-10-11T02:26:59.392Z,73.58
2022-10-11T02:29:29.324Z,73.18
2022-10-11T02:31:58.174Z,73.19
2022-10-11T02:34:31.978Z,73.11
2022-10-11T02:37:12.162Z,73.29
2022-10-11T02:39:50.206Z,73.50
2022-10-11T02:42:22.956Z,73.14
2022-10-11T02:45:00.734Z,73.26
2022-10-11T02:47:29.633Z,73.20
2022-10-11T02:49:56.040Z,73.01
2022-10-11T02:52:22.421Z,72.88
2022-10-11T02:54:48.785Z,73.08
2022-10-11T02:57:15.171Z,72.95
2022-10-11T02:59:41.511Z,73.44
2022-10-11T03:02:08.002Z,73.38
2022-10-11T03:04:34.409Z,73.32
2022-10-11T03:07:00.792Z,73.54
2022-10-11T03:09:27.174Z,73.20
2022-10-11T03:11:53.514Z,73.17
2022-10-11T03:14:19.905Z,73.23
2022-10-11T03:16:46.299Z,72.97
2022-10-11T03:19:16.924Z,73.04
2022-10-11T03:21:45.449Z,72.98
2022-10-11T03:24:11.826Z,73.73
2022-10-11T03:26:38.217Z,72.88
2022-10-11T03:29:04.580Z,73.13
2022-10-11T03:31:30.939Z,73.55
2022-10-11T03:33:57.295Z,73.08
2022-10-11T03:36:23.725Z,73.42
2022-10-11T03:38:50.091Z,72.79
2022-10-11T03:41:16.434Z,72.74
2022-10-11T03:43:42.814Z,72.84
2022-10-11T03:46:09.396Z,73.46
2022-10-11T03:48:35.896Z,73.15
2022-10-11T03:51:02.659Z,73.16
2022-10-11T03:53:29.495Z,73.09
2022-10-11T03:55:56.921Z,73.26
2022-10-11T03:58:23.652Z,73.23
2022-10-11T04:00:51.846Z,73.01
2022-10-11T04:03:18.227Z,73.24
2022-10-11T04:05:44.992Z,73.03
2022-10-11T04:08:12.445Z,73.44
2022-10-11T04:10:39.939Z,73.26
2022-10-11T04:13:06.606Z,73.50
2022-10-11T04:15:33.025Z,73.40
2022-10-11T04:17:59.398Z,73.77
2022-10-11T04:20:25.766Z,73.61
2022-10-11T04:22:52.117Z,73.48
2022-10-11T04:25:18.464Z,73.51
2022-10-11T04:27:44.835Z,73.00
2022-10-11T04:30:11.916Z,73.37
2022-10-11T04:32:38.261Z,73.41
2022-10-11T04:35:05.004Z,73.28
2022-10-11T04:37:31.353Z,73.15
2022-10-11T04:39:57.698Z,73.48
2022-10-11T04:42:24.089Z,73.68
2022-10-11T04:44:50.465Z,73.82
2022-10-11T04:47:16.829Z,74.19
2022-10-11T04:49:43.202Z,74.13
2022-10-11T04:52:09.574Z,74.13
2022-10-11T04:54:36.566Z,74.27
2022-10-11T04:57:03.076Z,74.07
2022-10-11T04:59:29.510Z,73.73
2022-10-11T05:01:56.038Z,73.06
2022-10-11T05:04:22.414Z,73.59
2022-10-11T05:06:48.813Z,73.92
2022-10-11T05:09:15.257Z,73.69
2022-10-11T05:11:41.645Z,73.89
2022-10-11T05:14:07.983Z,73.51
2022-10-11T05:16:35.489Z,74.48
2022-10-11T05:19:01.881Z,73.79
2022-10-11T05:21:29.914Z,74.06
2022-10-11T05:23:57.430Z,74.06
2022-10-11T05:26:27.362Z,73.89
2022-10-11T05:28:54.969Z,73.66
2022-10-11T05:31:22.005Z,73.82
2022-10-11T05:33:48.616Z,73.84
2022-10-11T05:36:15.210Z,74.35
2022-10-11T05:38:41.589Z,73.77
2022-10-11T05:41:11.785Z,73.67
2022-10-11T05:43:38.166Z,73.47
2022-10-11T05:46:05.751Z,74.11
2022-10-11T05:48:32.681Z,73.77
2022-10-11T05:51:05.030Z,74.20
2022-10-11T05:53:32.258Z,74.42
2022-10-11T05:55:59.627Z,74.51
2022-10-11T05:58:26.386Z,73.78
2022-10-11T06:00:53.260Z,74.34
2022-10-11T06:03:21.017Z,74.23
2022-10-11T06:05:47.565Z,74.49
2022-10-11T06:08:14.758Z,74.80
2022-10-11T06:10:41.438Z,75.45
2022-10-11T06:13:08.894Z,74.47
2022-10-11T06:15:38.628Z,74.86
2022-10-11T06:18:04.994Z,74.81
2022-10-11T06:20:31.343Z,74.20
2022-10-11T06:22:58.783Z,74.41
2022-10-11T06:25:25.178Z,74.73
2022-10-11T06:27:51.561Z,74.71
2022-10-11T06:30:17.995Z,74.81
2022-10-11T06:32:44.466Z,74.96
2022-10-11T06:35:10.945Z,75.71
2022-10-11T06:37:37.326Z,74.29
2022-10-11T06:40:04.079Z,75.08
2022-10-11T06:42:30.427Z,74.77
2022-10-11T06:44:56.805Z,74.48
2022-10-11T06:47:23.166Z,75.60
2022-10-11T06:49:49.601Z,75.08
2022-10-11T06:52:15.965Z,74.71
2022-10-11T06:54:44.929Z,74.79
2022-10-11T06:57:11.931Z,74.16
2022-10-11T06:59:38.287Z,74.44
2022-10-11T07:02:04.701Z,74.27
2022-10-11T07:04:31.145Z,73.89
2022-10-11T07:06:57.540Z,74.41
2022-10-11T07:09:23.944Z,74.11
2022-10-11T07:11:50.287Z,73.94
2022-10-11T07:14:16.625Z,73.98
2022-10-11T07:16:43.020Z,73.98
2022-10-11T07:19:10.117Z,73.58
2022-10-11T07:21:36.822Z,73.60
2022-10-11T07:24:03.812Z,73.61
2022-10-11T07:26:36.809Z,73.55
2022-10-11T07:29:05.415Z,73.12
2022-10-11T07:31:31.870Z,73.24
2022-10-11T07:33:58.232Z,73.67
2022-10-11T07:36:25.670Z,73.31
2022-10-11T07:38:52.066Z,73.11
2022-10-11T07:41:18.833Z,73.28
2022-10-11T07:43:47.632Z,72.89
2022-10-11T07:46:14.190Z,72.89
2022-10-11T07:48:41.415Z,72.61
2022-10-11T07:51:20.340Z,72.45
2022-10-11T07:53:49.825Z,72.55
2022-10-11T07:56:19.422Z,72.00
2022-10-11T07:58:53.163Z,71.94
2022-10-11T08:01:20.578Z,71.85
2022-10-11T08:03:47.502Z,71.81
2022-10-11T08:06:16.412Z,71.62
2022-10-11T08:08:42.780Z,71.28
2022-10-11T08:11:09.546Z,71.97
2022-10-11T08:13:35.918Z,71.36
2022-10-11T08:16:10.115Z,71.61
2022-10-11T08:18:36.479Z,71.56
2022-10-11T08:21:11.158Z,71.42
2022-10-11T08:23:37.978Z,71.58
2022-10-11T08:26:04.799Z,71.51
2022-10-11T08:28:32.080Z,71.64
2022-10-11T08:30:58.666Z,71.54
2022-10-11T08:33:26.433Z,71.12
2022-10-11T08:35:54.044Z,71.39
2022-10-11T08:38:21.647Z,71.66
2022-10-11T08:40:56.306Z,71.75
2022-10-11T08:43:58.102Z,71.64
2022-10-11T08:46:33.329Z,71.47
2022-10-11T08:49:01.446Z,71.63
2022-10-11T08:51:32.436Z,71.14
2022-10-11T08:54:07.738Z,71.39
2022-10-11T08:56:39.761Z,71.51
2022-10-11T08:59:11.947Z,71.32
2022-10-11T09:01:44.839Z,71.42
2022-10-11T09:04:15.828Z,71.17
2022-10-11T09:06:59.244Z,70.96
2022-10-11T09:10:06.273Z,71.10
2022-10-11T09:12:57.585Z,71.33
2022-10-11T09:15:40.292Z,70.72
2022-10-11T09:18:18.530Z,70.80
2022-10-11T09:20:52.967Z,70.72
2022-10-11T09:24:04.241Z,70.96
2022-10-11T09:26:55.240Z,71.14
2022-10-11T09:29:55.517Z,71.28
2022-10-11T09:32:24.281Z,70.87
2022-10-11T09:34:59.853Z,70.30
2022-10-11T09:37:58.413Z,70.24
2022-10-11T09:40:44.505Z,69.75
2022-10-11T09:43:11.254Z,69.39
2022-10-11T09:45:38.685Z,69.59
2022-10-11T09:48:07.170Z,69.33
2022-10-11T09:50:34.338Z,69.17
2022-10-11T09:53:04.819Z,68.92
2022-10-11T09:55:43.261Z,68.93
2022-10-11T09:58:30.288Z,69.05
2022-10-11T10:01:03.928Z,68.73
2022-10-11T10:03:37.016Z,68.65
2022-10-11T10:06:17.558Z,69.10
2022-10-11T10:08:46.778Z,68.73
2022-10-11T10:11:14.720Z,69.04
2022-10-11T10:13:51.247Z,68.81
2022-10-11T10:16:27.800Z,69.17
2022-10-11T10:18:54.097Z,69.06
2022-10-11T10:21:27.704Z,69.07
2022-10-11T10:23:55.686Z,68.70
2022-10-11T10:26:26.543Z,68.56
2022-10-11T10:29:01.733Z,68.94
2022-10-11T10:32:15.371Z,68.61
2022-10-11T10:34:38.171Z,68.41
2022-10-11T10:37:13.422Z,68.25
2022-10-11T10:39:50.019Z,68.25
2022-10-11T10:42:19.580Z,68.69
2022-10-11T10:44:56.554Z,68.55
2022-10-11T10:47:38.697Z,68.44
2022-10-11T10:50:15.119Z,67.88
2022-10-11T10:53:24.395Z,67.08
2022-10-11T10:56:08.561Z,66.57
2022-10-11T10:58:59.876Z,65.80
2022-10-11T11:01:29.055Z,65.36
2022-10-11T11:04:22.179Z,65.18
2022-10-11T11:07:04.707Z,65.14
2022-10-11T11:09:51.740Z,64.59
2022-10-11T11:12:35.103Z,64.58
2022-10-11T11:15:19.852Z,64.49
2022-10-11T11:18:16.720Z,63.82
2022-10-11T11:21:01.761Z,63.96
2022-10-11T11:23:45.389Z,63.48
2022-10-11T11:26:33.138Z,63.42
2022-10-11T11:29:07.925Z,63.34
2022-10-11T11:31:40.417Z,62.77
2022-10-11T11:34:23.955Z,62.79
2022-10-11T11:37:01.656Z,62.55
2022-10-11T11:39:45.183Z,61.73
2022-10-11T11:42:29.917Z,61.02
2022-10-11T11:44:59.454Z,61.42
2022-10-11T11:47:59.749Z,60.46
2022-10-11T11:50:27.931Z,59.65
2022-10-11T11:53:00.643Z,59.91
2022-10-11T11:55:33.322Z,59.66
2022-10-11T11:58:12.247Z,59.20
2022-10-11T12:01:02.496Z,58.42
2022-10-11T12:03:41.791Z,57.87
2022-10-11T12:06:17.365Z,56.91
2022-10-11T12:08:48.307Z,56.72
2022-10-11T12:11:26.178Z,57.24
2022-10-11T12:13:54.704Z,57.58
2022-10-11T12:16:22.233Z,58.38
2022-10-11T12:18:55.974Z,58.50
2022-10-11T12:21:35.617Z,59.43
2022-10-11T12:24:20.181Z,58.40
2022-10-11T12:26:48.872Z,58.24
2022-10-11T12:29:45.417Z,58.87
2022-10-11T12:32:36.090Z,59.48
2022-10-11T12:35:34.745Z,59.35
2022-10-11T12:38:06.381Z,59.58
2022-10-11T12:40:42.441Z,60.03
2022-10-11T12:43:26.053Z,60.33
2022-10-11T12:45:52.574Z,60.95
2022-10-11T12:48:38.509Z,61.24
2022-10-11T12:51:36.153Z,60.99
2022-10-11T12:54:31.000Z,61.00
2022-10-11T12:57:31.919Z,60.36
2022-10-11T13:00:18.839Z,60.47
2022-10-11T13:02:46.202Z,60.71
2022-10-11T13:05:22.053Z,60.79
2022-10-11T13:07:49.558Z,60.90
2022-10-11T13:10:24.117Z,60.58
2022-10-11T13:12:52.863Z,61.08
2022-10-11T13:15:21.969Z,60.04
2022-10-11T13:17:50.215Z,60.14
2022-10-11T13:20:17.072Z,59.71
2022-10-11T13:22:49.643Z,59.73
2022-10-11T13:25:20.347Z,59.64
2022-10-11T13:27:49.287Z,59.99
2022-10-11T13:30:23.903Z,60.17
2022-10-11T13:32:51.525Z,60.59
2022-10-11T13:35:32.770Z,60.71
2022-10-11T13:37:59.781Z,60.41
2022-10-11T13:40:27.243Z,60.68
2022-10-11T13:42:55.503Z,60.22
2022-10-11T13:45:24.811Z,59.45
2022-10-11T13:47:55.666Z,59.03
2022-10-11T13:50:23.731Z,58.88
2022-10-11T13:52:52.689Z,58.86
2022-10-11T13:55:34.342Z,58.06
2022-10-11T13:58:09.314Z,57.16
2022-10-11T14:00:39.731Z,56.60
2022-10-11T14:03:12.146Z,56.50
2022-10-11T14:05:51.582Z,56.47
2022-10-11T14:08:55.130Z,56.60
2022-10-11T14:11:47.602Z,56.34
2022-10-11T14:14:30.546Z,55.45
2022-10-11T14:17:10.212Z,55.10
2022-10-11T14:19:37.196Z,54.94
2022-10-11T14:22:05.577Z,54.86
2022-10-11T14:24:31.935Z,55.26
2022-10-11T14:26:59.009Z,54.46
2022-10-11T14:29:31.371Z,54.36
2022-10-11T14:32:06.900Z,54.04
2022-10-11T14:34:34.473Z,54.33
2022-10-11T14:37:00.947Z,54.18
2022-10-11T14:39:30.638Z,54.98
2022-10-11T14:41:57.122Z,54.92
2022-10-11T14:44:24.010Z,54.85
2022-10-11T14:46:54.307Z,55.20
2022-10-11T14:49:25.065Z,55.54
2022-10-11T14:51:54.030Z,55.60
2022-10-11T14:54:23.466Z,55.32
2022-10-11T14:56:51.312Z,55.65
2022-10-11T14:59:20.384Z,55.86
2022-10-11T15:01:51.581Z,55.79
2022-10-11T15:04:19.993Z,55.63
2022-10-11T15:06:46.393Z,55.92
2022-10-11T15:09:12.822Z,56.05
2022-10-11T15:11:39.626Z,56.36
2022-10-11T15:14:06.569Z,55.64
2022-10-11T15:16:34.158Z,56.34
2022-10-11T15:19:00.700Z,55.82
2022-10-11T15:21:29.462Z,56.24
2022-10-11T15:23:56.216Z,56.41
2022-10-11T15:26:25.827Z,56.28
2022-10-11T15:28:54.665Z,56.47
2022-10-11T15:31:21.862Z,56.69
2022-10-11T15:33:49.020Z,56.51
2022-10-11T15:36:20.827Z,56.20
2022-10-11T15:38:48.496Z,57.01
2022-10-11T15:41:19.790Z,57.32
2022-10-11T15:43:48.056Z,58.01
2022-10-11T15:46:17.987Z,57.98
2022-10-11T15:48:45.493Z,58.06
2022-10-11T15:51:11.940Z,57.97
2022-10-11T15:53:38.579Z,57.85
2022-10-11T15:56:11.910Z,58.10
2022-10-11T15:58:40.722Z,57.79
2022-10-11T16:01:09.911Z,57.78
2022-10-11T16:03:36.513Z,57.86
2022-10-11T16:06:05.498Z,58.08
2022-10-11T16:08:33.649Z,58.41
2022-10-11T16:11:00.447Z,58.62
2022-10-11T16:13:26.978Z,58.75
2022-10-11T16:15:53.946Z,58.97
2022-10-11T16:18:22.065Z,59.36
2022-10-11T16:20:51.293Z,59.37
2022-10-11T16:23:20.063Z,59.50
2022-10-11T16:25:47.760Z,59.63
2022-10-11T16:28:14.256Z,59.85
2022-10-11T16:30:43.782Z,60.17
2022-10-11T16:33:10.245Z,60.25
2022-10-11T16:35:41.326Z,60.53
2022-10-11T16:38:07.712Z,60.91
2022-10-11T16:40:35.871Z,61.26
2022-10-11T16:43:07.375Z,61.49
2022-10-11T16:45:34.259Z,61.50
2022-10-11T16:48:00.659Z,61.77
2022-10-11T16:50:27.276Z,62.03
2022-10-11T16:52:55.363Z,62.30
2022-10-11T16:55:22.796Z,62.72
2022-10-11T16:57:49.165Z,62.52
2022-10-11T17:00:15.957Z,63.05
2022-10-11T17:02:42.371Z,63.36
2022-10-11T17:05:08.973Z,63.58
2022-10-11T17:07:35.510Z,63.93
2022-10-11T17:10:01.904Z,64.04
2022-10-11T17:12:28.285Z,64.21
2022-10-11T17:14:54.839Z,64.74
2022-10-11T17:17:21.213Z,64.55
2022-10-11T17:19:47.892Z,64.63
2022-10-11T17:22:17.568Z,64.92
2022-10-11T17:24:44.570Z,65.01
2022-10-11T17:27:11.093Z,65.16
2022-10-11T17:29:37.935Z,65.41
2022-10-11T17:32:04.501Z,65.57
2022-10-11T17:34:31.070Z,65.74
2022-10-11T17:36:57.448Z,66.09
2022-10-11T17:39:24.071Z,66.45
2022-10-11T17:41:50.660Z,66.56
2022-10-11T17:44:17.958Z,66.59
2022-10-11T17:46:44.649Z,66.78
2022-10-11T17:49:12.281Z,66.98
2022-10-11T17:51:39.903Z,67.50
2022-10-11T17:54:06.324Z,67.73
2022-10-11T17:56:37.629Z,67.72
2022-10-11T17:59:05.102Z,68.27
2022-10-11T18:01:31.769Z,72.59
2022-10-11T18:04:00.333Z,71.28
2022-10-11T18:06:29.216Z,67.62
2022-10-11T18:08:57.156Z,66.74
2022-10-11T18:11:24.044Z,66.62
2022-10-11T18:13:52.661Z,66.94
2022-10-11T18:16:22.038Z,67.09
2022-10-11T18:18:49.014Z,67.53
2022-10-11T18:21:16.260Z,67.68
2022-10-11T18:23:42.679Z,68.37
2022-10-11T18:26:17.638Z,68.14
2022-10-11T18:28:45.204Z,68.65
2022-10-11T18:31:18.519Z,68.79
2022-10-11T18:33:45.977Z,68.91
2022-10-11T18:36:14.319Z,69.07
2022-10-11T18:38:46.039Z,69.21
2022-10-11T18:41:14.990Z,69.26
2022-10-11T18:43:41.577Z,69.30
2022-10-11T18:46:14.982Z,69.48
2022-10-11T18:48:46.348Z,69.49
2022-10-11T18:51:16.396Z,69.78
2022-10-11T18:53:42.799Z,69.98
2022-10-11T18:56:10.702Z,69.91
2022-10-11T18:58:38.968Z,70.19
2022-10-11T19:01:10.400Z,70.24
2022-10-11T19:03:37.209Z,70.06
2022-10-11T19:06:09.324Z,70.56
2022-10-11T19:08:35.909Z,70.44
2022-10-11T19:11:06.984Z,70.16
2022-10-11T19:13:34.790Z,70.39
2022-10-11T19:16:09.943Z,70.71
2022-10-11T19:18:41.733Z,70.27
2022-10-11T19:21:12.808Z,70.76
2022-10-11T19:23:42.203Z,70.40
2022-10-11T19:26:13.486Z,70.51
2022-10-11T19:28:39.944Z,70.39
2022-10-11T19:31:09.929Z,70.43
2022-10-11T19:33:36.515Z,70.64
2022-10-11T19:36:05.261Z,70.88
2022-10-11T19:38:35.666Z,70.92
2022-10-11T19:41:03.600Z,70.90
2022-10-11T19:43:30.417Z,70.80
2022-10-11T19:46:05.239Z,70.90
2022-10-11T19:48:31.937Z,71.03
2022-10-11T19:51:19.169Z,70.82
2022-10-11T19:53:46.110Z,70.86
2022-10-11T19:56:15.339Z,71.13
2022-10-11T19:58:42.197Z,71.05
2022-10-11T20:01:16.404Z,71.11
2022-10-11T20:03:44.578Z,71.04
2022-10-11T20:06:11.422Z,71.34
2022-10-11T20:08:38.091Z,71.15
2022-10-11T20:11:08.155Z,71.30
2022-10-11T20:13:36.154Z,70.86
2022-10-11T20:16:08.026Z,71.56
2022-10-11T20:18:34.548Z,71.19
2022-10-11T20:21:04.426Z,71.46
2022-10-11T20:23:31.600Z,71.27
2022-10-11T20:25:58.968Z,71.17
2022-10-11T20:28:27.102Z,71.62
2022-10-11T20:30:53.788Z,73.35
2022-10-11T20:33:20.938Z,72.02
2022-10-11T20:35:58.558Z,71.66
2022-10-11T20:38:24.941Z,71.61
2022-10-11T20:40:51.304Z,71.34
2022-10-11T20:43:17.730Z,71.54
2022-10-11T20:45:44.118Z,71.71
2022-10-11T20:48:10.485Z,71.85
2022-10-11T20:50:36.857Z,71.50
2022-10-11T20:53:03.201Z,71.59
2022-10-11T20:55:29.638Z,71.85
2022-10-11T20:57:56.543Z,71.55
2022-10-11T21:00:23.128Z,71.49
2022-10-11T21:02:51.103Z,71.56
2022-10-11T21:05:17.474Z,71.84
2022-10-11T21:07:44.441Z,71.98
2022-10-11T21:10:10.810Z,72.02
2022-10-11T21:12:37.248Z,72.09
2022-10-11T21:15:03.770Z,71.88
2022-10-11T21:17:30.145Z,72.17
2022-10-11T21:19:58.558Z,72.11
2022-10-11T21:22:24.916Z,72.49
2022-10-11T21:24:51.265Z,72.16
2022-10-11T21:27:17.697Z,72.51
2022-10-11T21:29:44.060Z,72.63
2022-10-11T21:32:14.280Z,72.35
2022-10-11T21:34:40.963Z,72.65
2022-10-11T21:37:07.377Z,72.30
2022-10-11T21:39:33.831Z,72.37
2022-10-11T21:42:00.230Z,72.58
2022-10-11T21:44:26.616Z,72.54
2022-10-11T21:47:08.193Z,72.37
2022-10-11T21:49:34.941Z,72.21
2022-10-11T21:52:01.522Z,72.00
2022-10-11T21:54:27.874Z,72.14
2022-10-11T21:56:54.370Z,72.14
2022-10-11T21:59:20.833Z,72.71
2022-10-11T22:01:47.220Z,72.69
2022-10-11T22:04:13.622Z,72.35
2022-10-11T22:06:40.145Z,72.54
2022-10-11T22:09:07.498Z,72.94
2022-10-11T22:11:34.127Z,72.76
2022-10-11T22:14:00.863Z,73.14
2022-10-11T22:16:27.275Z,72.96
2022-10-11T22:18:53.879Z,72.96
2022-10-11T22:21:23.061Z,73.19
2022-10-11T22:23:51.525Z,73.04
2022-10-11T22:26:20.866Z,72.99
2022-10-11T22:28:47.519Z,73.03
2022-10-11T22:31:15.238Z,73.14
2022-10-11T22:33:42.036Z,72.87
2022-10-11T22:36:10.214Z,72.92
2022-10-11T22:38:38.529Z,73.25
2022-10-11T22:41:05.025Z,73.07
2022-10-11T22:43:31.572Z,73.06
2022-10-11T22:45:57.946Z,72.69
2022-10-11T22:48:24.466Z,72.80
2022-10-11T22:50:51.280Z,72.70
2022-10-11T22:53:20.093Z,73.13
2022-10-11T22:55:47.119Z,73.07
2022-10-11T22:58:13.821Z,72.75
2022-10-11T23:00:40.179Z,72.96
2022-10-11T23:03:09.542Z,72.93
2022-10-11T23:05:35.971Z,73.16
2022-10-11T23:08:02.358Z,73.16
2022-10-11T23:10:28.967Z,73.43
2022-10-11T23:12:55.346Z,72.90
2022-10-11T23:15:21.751Z,73.27
2022-10-11T23:17:48.105Z,72.91
2022-10-11T23:20:14.681Z,72.83
2022-10-11T23:22:41.027Z,72.51
2022-10-11T23:25:08.161Z,72.62
2022-10-11T23:27:34.702Z,73.08
2022-10-11T23:30:01.166Z,72.88
2022-10-11T23:32:27.507Z,72.76
2022-10-11T23:34:53.873Z,72.94
2022-10-11T23:37:20.472Z,73.22
2022-10-11T23:39:46.847Z,72.83
2022-10-11T23:42:13.186Z,72.79
2022-10-11T23:44:39.551Z,72.84
2022-10-11T23:47:05.922Z,72.89
2022-10-11T23:49:32.376Z,72.86
2022-10-11T23:51:58.717Z,72.83
2022-10-11T23:54:25.069Z,72.72
2022-10-11T23:56:51.433Z,73.11
2022-10-11T23:59:17.770Z,73.14
